AirNav   Air Wisconsin Up To $57,000 Bonus
 
 1137 users online  

32MI William Beaumont Hospital Heliport
Royal Oak, Michigan, USA

GOING TO ROYAL OAK?


FAA INFORMATION EFFECTIVE 30 JANUARY 2020

Location

FAA Identifier: 32MI
Lat/Long: 42-30-54.2800N 083-11-39.0000W
42-30.904667N 083-11.650000W
42.5150778,-83.1941667
(estimated)
Elevation: 771 ft. / 235 m (estimated)
Variation: 06W (1990)
From city: 1 mile W of ROYAL OAK, MI
Time zone: UTC -5 (UTC -4 during Daylight Saving Time)
Zip code: 48073

Heliport Operations

Heliport use: Private use, MEDICAL USE.
Activation date: 03/1993
Control tower: no
ARTCC: CLEVELAND CENTER
FSS: LANSING FLIGHT SERVICE STATION
Attendance: CONTINUOUS
Segmented circle: no
Lights: SS-SR

Heliport Communications

WX AWOS-3 at VLL (1.8 nm NE): 119.475 (248-288-4649)
WX ASOS at DET (10 nm SE): PHONE 313-371-9696
WX ASOS at PTK (13 nm NW): 125.025 (248-886-8551)
WX ASOS at DTW (19 nm S): 133.675 (734-955-5015)

Nearby radio navigation aids

VOR radial/distance  VOR name  Freq  Var
SVMr073/18.8SALEM VORTAC114.3003W
DXOr029/19.7DETROIT VOR/DME113.4006W
YQGr321/22.7WINDSOR VOR/DME113.8006W
CRLr026/30.4CARLETON VOR/DME115.7003W
FNTr144/36.4FLINT VORTAC116.9006W

 
NDB name  Hdg/Dist  Freq  Var  ID
GROSSE ILE003/24.941907WRYS .-. -.-- ...

Heliport Services

Runway Information

Helipad H1

Dimensions: 53 x 53 ft. / 16 x 16 m
Surface: concrete
Runway edge lights: PERI
Latitude: 42-30.904667N
Longitude: 083-11.650000W
Elevation: 771.0 ft.
Traffic pattern: leftleft
Obstructions: bldg
H1 116 FT BLDG 120 FT E; 130 FT CHIMNEYS 235 FT S; 33 FT LGT POLES IN VCNTY.

Heliport Ownership and Management from official FAA records

Ownership: Privately-owned
Owner: WILLIAM BEAUMONT HOSPITAL
3601 W 13 MILE RD
ROYAL OAK, MI 48072
Manager: CHRISTINE LAKING
3601 W 13 MILE RD
ROYAL OAK, MI 48072
Phone (248) 898-2691

Additional Remarks

FOR CD CTC DETROIT APCH AT 800-499-8181.

Instrument Procedures

There are no published instrument procedures at 32MI.

Some nearby airports with instrument procedures:

KVLL - Oakland/Troy Airport (2 nm NE)
KDET - Coleman A Young Municipal Airport (10 nm SE)
KPTK - Oakland County International Airport (13 nm NW)
1D2 - Canton-Plymouth-Mettetal Airport (15 nm SW)
KMTC - Selfridge Air National Guard Base (17 nm E)
57D - Ray Community Airport (19 nm NE)
Y47 - Oakland Southwest Airport (19 nm W)
D98 - Romeo State Airport (19 nm NE)
KDTW - Detroit Metropolitan Wayne County Airport (19 nm S)
 
Loc | Ops | Rwys | IFR | FBO | Links
Com | Nav | Svcs | Stats | Notes
Area around 32MI (William Beaumont Hospital Heliport)
 
Road maps at: MapQuest Bing Google
 
Aerial photo
No photo
 
Sectional chart

 
Airport distance calculator
Flying to William Beaumont Hospital Heliport? Find the distance to fly.

From to 32MI

Sunrise and sunset
Times for 19-Feb-2020
 Local
(UTC-5)
 Zulu
(UTC)
Morning civil twilight06:5611:56
Sunrise07:2512:25
Sunset18:0923:09
Evening civil twilight18:3723:37

Current date and time
Zulu (UTC)  19-Feb-2020 14:06:19
Local (UTC-5)  19-Feb-2020 09:06:19
 
METAR
KVLL 
2nm NE 
191356Z AUTO 31010G17KT 10SM CLR M06/M13 A3050 RMK AO2 T10601127
KDET 
10nm SE 
191353Z 30008G17KT 10SM CLR M05/M13 A3048 RMK AO2 SLP332 T10501128
KPTK 
13nm NW 
191353Z 31012KT 10SM CLR M07/M15 A3045 RMK AO2 SLP327 T10721150
KMTC 
18nm E 
191356Z 32011KT 10SM SCT028 M05/M11 A3046 RMK AO2A SLP328 T10511107
CYQG 
18nm SE 
191300Z AUTO 33012G18KT 9SM CLR M05/M12 A3045 RMK SLP322
KDTW 
18nm S 
191353Z 31012KT 10SM FEW030 FEW220 M06/M13 A3049 RMK AO2 SLP336 T10561133
TAF
KDET 
10nm SE 
191135Z 1912/2012 30013KT P6SM SCT040 FM200100 33007KT P6SM OVC100
KPTK 
13nm NW 
191135Z 1912/2012 30013KT P6SM SCT040 FM200100 33007KT P6SM BKN100 OVC250
KMTC 
18nm E 
190900Z 1909/2015 30012G18KT 9999 FEW120 530104 QNH3029INS BECMG 1915/1916 30009KT 9999 SKC 510023 QNH3043INS TXM01/1921Z TNM08/2009Z LAST NO AMDS AFT 1909 NEXT 1912
CYQG 
18nm SE 
191141Z 1912/2012 31013G23KT P6SM SCT030 TEMPO 1912/1914 BKN020 FM191500 30010KT P6SM FEW025 RMK FCST BASED ON AUTO OBS. NXT FCST BY 191800Z
KDTW 
18nm S 
191135Z 1912/2018 30013KT P6SM SCT040 FM200100 33007KT P6SM OVC100 FM201300 35005KT P6SM SCT040
NOTAMs
Click for the latest NOTAMs
NOTAMs are issued by the DoD/FAA and will open in a separate window not controlled by AirNav.

 

 
 

Would you like to see your business listed on this page?

 If your business provides an interesting product or service to pilots, flight crews, aircraft, or users of the William Beaumont Hospital Heliport, you should consider listing it here.  To start the listing process, click on the button below
 
Add a business
 

Other Pages about William Beaumont Hospital Heliport

Update a link
 
Copyright © AirNav, LLC. All rights reserved. Privacy Policy  Contact